sensor_id;sensor_type;location;lat;lon;timestamp;P1;durP1;ratioP1;P2;durP2;ratioP2
62687;SDS011;48752;51.056;17.056;2023-12-14T00:02:25;88.05;;;40.15;;
62687;SDS011;48752;51.056;17.056;2023-12-14T00:04:52;92.47;;;40.08;;
62687;SDS011;48752;51.056;17.056;2023-12-14T00:07:19;94.40;;;43.25;;
62687;SDS011;48752;51.056;17.056;2023-12-14T00:09:46;89.45;;;40.53;;
62687;SDS011;48752;51.056;17.056;2023-12-14T00:12:12;92.68;;;39.60;;
62687;SDS011;48752;51.056;17.056;2023-12-14T00:14:37;90.10;;;40.45;;
62687;SDS011;48752;51.056;17.056;2023-12-14T00:17:05;92.30;;;40.92;;
62687;SDS011;48752;51.056;17.056;2023-12-14T00:19:31;98.57;;;41.47;;
62687;SDS011;48752;51.056;17.056;2023-12-14T00:21:57;97.80;;;42.22;;
62687;SDS011;48752;51.056;17.056;2023-12-14T00:24:22;98.50;;;38.97;;
62687;SDS011;48752;51.056;17.056;2023-12-14T00:26:47;91.18;;;41.58;;
62687;SDS011;48752;51.056;17.056;2023-12-14T00:29:15;95.10;;;41.80;;
62687;SDS011;48752;51.056;17.056;2023-12-14T00:31:43;103.45;;;44.40;;
62687;SDS011;48752;51.056;17.056;2023-12-14T00:34:09;104.13;;;44.20;;
62687;SDS011;48752;51.056;17.056;2023-12-14T00:36:36;96.35;;;41.05;;
62687;SDS011;48752;51.056;17.056;2023-12-14T00:39:04;103.50;;;42.30;;
62687;SDS011;48752;51.056;17.056;2023-12-14T00:41:38;97.57;;;41.38;;
62687;SDS011;48752;51.056;17.056;2023-12-14T00:44:04;112.05;;;42.38;;
62687;SDS011;48752;51.056;17.056;2023-12-14T00:46:30;101.30;;;43.40;;
62687;SDS011;48752;51.056;17.056;2023-12-14T00:48:57;106.28;;;44.70;;
62687;SDS011;48752;51.056;17.056;2023-12-14T00:51:24;97.95;;;42.90;;
62687;SDS011;48752;51.056;17.056;2023-12-14T00:53:49;105.55;;;42.30;;
62687;SDS011;48752;51.056;17.056;2023-12-14T00:56:15;100.53;;;42.83;;
62687;SDS011;48752;51.056;17.056;2023-12-14T00:58:41;111.45;;;43.95;;
62687;SDS011;48752;51.056;17.056;2023-12-14T01:01:07;105.35;;;42.28;;
62687;SDS011;48752;51.056;17.056;2023-12-14T01:03:34;103.55;;;44.47;;
62687;SDS011;48752;51.056;17.056;2023-12-14T01:06:02;108.90;;;43.80;;
62687;SDS011;48752;51.056;17.056;2023-12-14T01:08:41;118.70;;;45.42;;
62687;SDS011;48752;51.056;17.056;2023-12-14T01:11:07;113.85;;;46.05;;
62687;SDS011;48752;51.056;17.056;2023-12-14T01:13:32;108.15;;;44.53;;
62687;SDS011;48752;51.056;17.056;2023-12-14T01:15:59;112.22;;;43.92;;
62687;SDS011;48752;51.056;17.056;2023-12-14T01:18:24;106.82;;;44.38;;
62687;SDS011;48752;51.056;17.056;2023-12-14T01:20:51;102.03;;;42.97;;
62687;SDS011;48752;51.056;17.056;2023-12-14T01:23:18;99.57;;;43.70;;
62687;SDS011;48752;51.056;17.056;2023-12-14T01:25:45;103.15;;;44.95;;
62687;SDS011;48752;51.056;17.056;2023-12-14T01:28:11;102.20;;;43.45;;
62687;SDS011;48752;51.056;17.056;2023-12-14T01:30:39;109.60;;;44.45;;
62687;SDS011;48752;51.056;17.056;2023-12-14T01:33:05;108.40;;;45.15;;
62687;SDS011;48752;51.056;17.056;2023-12-14T01:35:30;102.75;;;43.97;;
62687;SDS011;48752;51.056;17.056;2023-12-14T01:38:01;103.20;;;43.72;;
62687;SDS011;48752;51.056;17.056;2023-12-14T01:40:30;96.68;;;41.65;;
62687;SDS011;48752;51.056;17.056;2023-12-14T01:43:08;117.45;;;45.60;;
62687;SDS011;48752;51.056;17.056;2023-12-14T01:45:36;112.40;;;43.78;;
62687;SDS011;48752;51.056;17.056;2023-12-14T01:48:08;109.45;;;45.33;;
62687;SDS011;48752;51.056;17.056;2023-12-14T01:50:34;96.22;;;43.38;;
62687;SDS011;48752;51.056;17.056;2023-12-14T01:53:00;121.72;;;46.17;;
62687;SDS011;48752;51.056;17.056;2023-12-14T01:55:27;112.43;;;46.17;;
62687;SDS011;48752;51.056;17.056;2023-12-14T01:57:54;117.80;;;45.17;;
62687;SDS011;48752;51.056;17.056;2023-12-14T02:00:34;115.68;;;45.58;;
62687;SDS011;48752;51.056;17.056;2023-12-14T02:03:22;115.10;;;45.10;;
62687;SDS011;48752;51.056;17.056;2023-12-14T02:05:48;107.90;;;43.95;;
62687;SDS011;48752;51.056;17.056;2023-12-14T02:08:14;114.38;;;47.40;;
62687;SDS011;48752;51.056;17.056;2023-12-14T02:10:42;107.90;;;47.33;;
62687;SDS011;48752;51.056;17.056;2023-12-14T02:13:08;117.45;;;45.35;;
62687;SDS011;48752;51.056;17.056;2023-12-14T02:15:34;109.35;;;45.15;;
62687;SDS011;48752;51.056;17.056;2023-12-14T02:18:00;106.63;;;43.95;;
62687;SDS011;48752;51.056;17.056;2023-12-14T02:20:27;114.03;;;47.10;;
62687;SDS011;48752;51.056;17.056;2023-12-14T02:23:01;114.07;;;47.50;;
62687;SDS011;48752;51.056;17.056;2023-12-14T02:25:27;109.28;;;45.35;;
62687;SDS011;48752;51.056;17.056;2023-12-14T02:27:54;102.43;;;45.35;;
62687;SDS011;48752;51.056;17.056;2023-12-14T02:30:21;115.53;;;46.10;;
62687;SDS011;48752;51.056;17.056;2023-12-14T02:32:47;106.43;;;45.20;;
62687;SDS011;48752;51.056;17.056;2023-12-14T02:35:14;102.80;;;43.55;;
62687;SDS011;48752;51.056;17.056;2023-12-14T02:37:41;101.20;;;42.67;;
62687;SDS011;48752;51.056;17.056;2023-12-14T02:40:09;97.88;;;41.20;;
62687;SDS011;48752;51.056;17.056;2023-12-14T02:42:36;111.72;;;44.08;;
62687;SDS011;48752;51.056;17.056;2023-12-14T02:45:03;100.78;;;41.80;;
62687;SDS011;48752;51.056;17.056;2023-12-14T02:47:30;96.15;;;42.30;;
62687;SDS011;48752;51.056;17.056;2023-12-14T02:49:56;98.20;;;41.80;;
62687;SDS011;48752;51.056;17.056;2023-12-14T02:52:22;93.93;;;41.30;;
62687;SDS011;48752;51.056;17.056;2023-12-14T02:54:56;98.63;;;41.47;;
62687;SDS011;48752;51.056;17.056;2023-12-14T02:57:21;108.82;;;41.40;;
62687;SDS011;48752;51.056;17.056;2023-12-14T02:59:47;98.10;;;42.70;;
62687;SDS011;48752;51.056;17.056;2023-12-14T03:02:14;93.88;;;42.05;;
62687;SDS011;48752;51.056;17.056;2023-12-14T03:04:40;86.68;;;39.05;;
62687;SDS011;48752;51.056;17.056;2023-12-14T03:07:07;82.55;;;39.15;;
62687;SDS011;48752;51.056;17.056;2023-12-14T03:09:33;89.60;;;38.45;;
62687;SDS011;48752;51.056;17.056;2023-12-14T03:12:01;86.40;;;39.13;;
62687;SDS011;48752;51.056;17.056;2023-12-14T03:14:31;86.45;;;39.15;;
62687;SDS011;48752;51.056;17.056;2023-12-14T03:17:06;86.93;;;38.78;;
62687;SDS011;48752;51.056;17.056;2023-12-14T03:19:42;86.82;;;38.03;;
62687;SDS011;48752;51.056;17.056;2023-12-14T03:22:12;90.72;;;38.35;;
62687;SDS011;48752;51.056;17.056;2023-12-14T03:24:52;86.00;;;38.10;;
62687;SDS011;48752;51.056;17.056;2023-12-14T03:27:18;89.70;;;38.17;;
62687;SDS011;48752;51.056;17.056;2023-12-14T03:29:45;81.28;;;40.00;;
62687;SDS011;48752;51.056;17.056;2023-12-14T03:32:10;87.15;;;38.35;;
62687;SDS011;48752;51.056;17.056;2023-12-14T03:34:37;86.50;;;40.05;;
62687;SDS011;48752;51.056;17.056;2023-12-14T03:37:03;91.72;;;39.00;;
62687;SDS011;48752;51.056;17.056;2023-12-14T03:39:29;86.28;;;39.67;;
62687;SDS011;48752;51.056;17.056;2023-12-14T03:41:55;91.90;;;39.75;;
62687;SDS011;48752;51.056;17.056;2023-12-14T03:44:21;96.10;;;39.15;;
62687;SDS011;48752;51.056;17.056;2023-12-14T03:46:50;89.45;;;37.80;;
62687;SDS011;48752;51.056;17.056;2023-12-14T03:49:19;96.05;;;39.33;;
62687;SDS011;48752;51.056;17.056;2023-12-14T03:51:46;86.15;;;38.10;;
62687;SDS011;48752;51.056;17.056;2023-12-14T03:54:12;92.05;;;38.58;;
62687;SDS011;48752;51.056;17.056;2023-12-14T03:56:38;94.78;;;38.45;;
62687;SDS011;48752;51.056;17.056;2023-12-14T03:59:06;87.60;;;38.58;;
62687;SDS011;48752;51.056;17.056;2023-12-14T04:01:33;96.50;;;37.67;;
62687;SDS011;48752;51.056;17.056;2023-12-14T04:04:05;94.53;;;37.55;;
62687;SDS011;48752;51.056;17.056;2023-12-14T04:06:31;93.10;;;39.17;;
62687;SDS011;48752;51.056;17.056;2023-12-14T04:08:57;83.70;;;37.03;;
62687;SDS011;48752;51.056;17.056;2023-12-14T04:11:22;95.50;;;38.92;;
62687;SDS011;48752;51.056;17.056;2023-12-14T04:13:50;85.63;;;37.08;;
62687;SDS011;48752;51.056;17.056;2023-12-14T04:16:21;93.95;;;36.95;;
62687;SDS011;48752;51.056;17.056;2023-12-14T04:18:48;95.22;;;37.38;;
62687;SDS011;48752;51.056;17.056;2023-12-14T04:21:15;106.50;;;39.70;;
62687;SDS011;48752;51.056;17.056;2023-12-14T04:23:40;94.78;;;37.28;;
62687;SDS011;48752;51.056;17.056;2023-12-14T04:26:08;92.15;;;38.00;;
62687;SDS011;48752;51.056;17.056;2023-12-14T04:28:35;88.35;;;36.97;;
62687;SDS011;48752;51.056;17.056;2023-12-14T04:31:02;91.18;;;36.03;;
62687;SDS011;48752;51.056;17.056;2023-12-14T04:33:28;77.32;;;34.85;;
62687;SDS011;48752;51.056;17.056;2023-12-14T04:35:54;85.63;;;35.53;;
62687;SDS011;48752;51.056;17.056;2023-12-14T04:38:20;85.05;;;33.25;;
62687;SDS011;48752;51.056;17.056;2023-12-14T04:40:45;86.50;;;34.13;;
62687;SDS011;48752;51.056;17.056;2023-12-14T04:43:13;90.72;;;36.17;;
62687;SDS011;48752;51.056;17.056;2023-12-14T04:45:39;86.55;;;35.13;;
62687;SDS011;48752;51.056;17.056;2023-12-14T04:48:06;83.45;;;35.40;;
62687;SDS011;48752;51.056;17.056;2023-12-14T04:50:34;91.30;;;34.72;;
62687;SDS011;48752;51.056;17.056;2023-12-14T04:55:27;85.70;;;33.92;;
62687;SDS011;48752;51.056;17.056;2023-12-14T04:57:53;89.85;;;35.22;;
62687;SDS011;48752;51.056;17.056;2023-12-14T05:00:19;83.80;;;33.03;;
62687;SDS011;48752;51.056;17.056;2023-12-14T05:02:47;84.78;;;34.65;;
62687;SDS011;48752;51.056;17.056;2023-12-14T05:05:17;86.55;;;34.38;;
62687;SDS011;48752;51.056;17.056;2023-12-14T05:07:43;78.97;;;32.97;;
62687;SDS011;48752;51.056;17.056;2023-12-14T05:10:09;91.80;;;33.63;;
62687;SDS011;48752;51.056;17.056;2023-12-14T05:12:36;85.32;;;33.03;;
62687;SDS011;48752;51.056;17.056;2023-12-14T05:15:09;73.35;;;32.28;;
62687;SDS011;48752;51.056;17.056;2023-12-14T05:17:36;81.68;;;34.20;;
62687;SDS011;48752;51.056;17.056;2023-12-14T05:20:07;75.85;;;32.83;;
62687;SDS011;48752;51.056;17.056;2023-12-14T05:22:33;78.68;;;34.08;;
62687;SDS011;48752;51.056;17.056;2023-12-14T05:24:59;76.45;;;32.25;;
62687;SDS011;48752;51.056;17.056;2023-12-14T05:27:26;75.38;;;33.25;;
62687;SDS011;48752;51.056;17.056;2023-12-14T05:29:52;75.57;;;31.33;;
62687;SDS011;48752;51.056;17.056;2023-12-14T05:32:18;84.20;;;34.15;;
62687;SDS011;48752;51.056;17.056;2023-12-14T05:34:46;76.60;;;31.15;;
62687;SDS011;48752;51.056;17.056;2023-12-14T05:37:13;78.25;;;30.65;;
62687;SDS011;48752;51.056;17.056;2023-12-14T05:39:41;76.75;;;32.30;;
62687;SDS011;48752;51.056;17.056;2023-12-14T05:42:08;76.93;;;32.80;;
62687;SDS011;48752;51.056;17.056;2023-12-14T05:44:35;76.93;;;33.05;;
62687;SDS011;48752;51.056;17.056;2023-12-14T05:47:02;78.32;;;32.58;;
62687;SDS011;48752;51.056;17.056;2023-12-14T05:49:29;77.30;;;32.00;;
62687;SDS011;48752;51.056;17.056;2023-12-14T05:51:58;73.80;;;31.83;;
62687;SDS011;48752;51.056;17.056;2023-12-14T05:54:24;79.80;;;30.90;;
62687;SDS011;48752;51.056;17.056;2023-12-14T05:56:51;71.55;;;32.85;;
62687;SDS011;48752;51.056;17.056;2023-12-14T05:59:17;76.85;;;32.88;;
62687;SDS011;48752;51.056;17.056;2023-12-14T06:01:45;80.22;;;32.83;;
62687;SDS011;48752;51.056;17.056;2023-12-14T06:04:11;77.25;;;32.78;;
62687;SDS011;48752;51.056;17.056;2023-12-14T06:06:40;80.10;;;32.72;;
62687;SDS011;48752;51.056;17.056;2023-12-14T06:09:07;73.43;;;31.38;;
62687;SDS011;48752;51.056;17.056;2023-12-14T06:11:34;84.65;;;33.38;;
62687;SDS011;48752;51.056;17.056;2023-12-14T06:13:59;85.13;;;32.88;;
62687;SDS011;48752;51.056;17.056;2023-12-14T06:16:27;87.28;;;36.17;;
62687;SDS011;48752;51.056;17.056;2023-12-14T06:18:53;79.00;;;33.42;;
62687;SDS011;48752;51.056;17.056;2023-12-14T06:21:19;89.63;;;33.97;;
62687;SDS011;48752;51.056;17.056;2023-12-14T06:23:46;88.80;;;35.63;;
62687;SDS011;48752;51.056;17.056;2023-12-14T06:26:11;85.18;;;33.20;;
62687;SDS011;48752;51.056;17.056;2023-12-14T06:28:37;73.80;;;32.58;;
62687;SDS011;48752;51.056;17.056;2023-12-14T06:31:02;81.72;;;34.40;;
62687;SDS011;48752;51.056;17.056;2023-12-14T06:33:37;82.80;;;34.78;;
62687;SDS011;48752;51.056;17.056;2023-12-14T06:36:04;95.20;;;36.75;;
62687;SDS011;48752;51.056;17.056;2023-12-14T06:38:32;84.32;;;33.22;;
62687;SDS011;48752;51.056;17.056;2023-12-14T06:41:00;87.47;;;33.03;;
62687;SDS011;48752;51.056;17.056;2023-12-14T06:43:27;68.05;;;30.75;;
62687;SDS011;48752;51.056;17.056;2023-12-14T06:45:53;69.80;;;31.75;;
62687;SDS011;48752;51.056;17.056;2023-12-14T06:48:20;79.32;;;31.52;;
62687;SDS011;48752;51.056;17.056;2023-12-14T06:50:47;73.65;;;31.02;;
62687;SDS011;48752;51.056;17.056;2023-12-14T06:53:13;74.28;;;32.85;;
62687;SDS011;48752;51.056;17.056;2023-12-14T06:55:41;79.97;;;33.92;;
62687;SDS011;48752;51.056;17.056;2023-12-14T06:58:07;65.68;;;29.38;;
62687;SDS011;48752;51.056;17.056;2023-12-14T07:00:36;62.33;;;29.25;;
62687;SDS011;48752;51.056;17.056;2023-12-14T07:03:06;70.38;;;31.27;;
62687;SDS011;48752;51.056;17.056;2023-12-14T07:05:32;78.03;;;34.17;;
62687;SDS011;48752;51.056;17.056;2023-12-14T07:07:58;72.95;;;30.25;;
62687;SDS011;48752;51.056;17.056;2023-12-14T07:10:23;71.72;;;30.75;;
62687;SDS011;48752;51.056;17.056;2023-12-14T07:12:49;65.47;;;29.17;;
62687;SDS011;48752;51.056;17.056;2023-12-14T07:15:14;72.40;;;29.30;;
62687;SDS011;48752;51.056;17.056;2023-12-14T07:17:40;65.20;;;31.45;;
62687;SDS011;48752;51.056;17.056;2023-12-14T07:20:06;77.50;;;31.75;;
62687;SDS011;48752;51.056;17.056;2023-12-14T07:22:33;71.43;;;30.95;;
62687;SDS011;48752;51.056;17.056;2023-12-14T07:24:58;77.18;;;30.55;;
62687;SDS011;48752;51.056;17.056;2023-12-14T07:27:25;66.90;;;29.70;;
62687;SDS011;48752;51.056;17.056;2023-12-14T07:29:52;72.65;;;30.63;;
62687;SDS011;48752;51.056;17.056;2023-12-14T07:32:18;66.80;;;30.75;;
62687;SDS011;48752;51.056;17.056;2023-12-14T07:34:45;60.13;;;28.42;;
62687;SDS011;48752;51.056;17.056;2023-12-14T07:37:11;66.38;;;28.80;;
62687;SDS011;48752;51.056;17.056;2023-12-14T07:39:38;64.25;;;29.92;;
62687;SDS011;48752;51.056;17.056;2023-12-14T07:42:04;58.55;;;25.75;;
62687;SDS011;48752;51.056;17.056;2023-12-14T07:44:31;59.53;;;26.70;;
62687;SDS011;48752;51.056;17.056;2023-12-14T07:47:01;55.47;;;24.67;;
62687;SDS011;48752;51.056;17.056;2023-12-14T07:49:28;52.13;;;22.65;;
62687;SDS011;48752;51.056;17.056;2023-12-14T07:51:53;51.83;;;21.55;;
62687;SDS011;48752;51.056;17.056;2023-12-14T07:54:20;49.28;;;22.63;;
62687;SDS011;48752;51.056;17.056;2023-12-14T07:56:52;52.05;;;23.85;;
62687;SDS011;48752;51.056;17.056;2023-12-14T07:59:17;51.47;;;22.85;;
62687;SDS011;48752;51.056;17.056;2023-12-14T08:01:45;54.75;;;24.42;;
62687;SDS011;48752;51.056;17.056;2023-12-14T08:04:10;50.67;;;23.63;;
62687;SDS011;48752;51.056;17.056;2023-12-14T08:06:37;49.03;;;22.08;;
62687;SDS011;48752;51.056;17.056;2023-12-14T08:09:05;52.67;;;23.33;;
62687;SDS011;48752;51.056;17.056;2023-12-14T08:11:38;45.90;;;22.55;;
62687;SDS011;48752;51.056;17.056;2023-12-14T08:14:04;49.03;;;25.85;;
62687;SDS011;48752;51.056;17.056;2023-12-14T08:16:38;53.65;;;24.33;;
62687;SDS011;48752;51.056;17.056;2023-12-14T08:19:03;57.88;;;23.58;;
62687;SDS011;48752;51.056;17.056;2023-12-14T08:21:31;60.50;;;26.27;;
62687;SDS011;48752;51.056;17.056;2023-12-14T08:23:56;57.15;;;25.25;;
62687;SDS011;48752;51.056;17.056;2023-12-14T08:26:23;57.83;;;25.98;;
62687;SDS011;48752;51.056;17.056;2023-12-14T08:28:50;59.80;;;25.83;;
62687;SDS011;48752;51.056;17.056;2023-12-14T08:31:16;66.70;;;28.80;;
62687;SDS011;48752;51.056;17.056;2023-12-14T08:33:43;64.35;;;27.50;;
62687;SDS011;48752;51.056;17.056;2023-12-14T08:36:10;60.75;;;25.73;;
62687;SDS011;48752;51.056;17.056;2023-12-14T08:38:42;57.28;;;26.45;;
62687;SDS011;48752;51.056;17.056;2023-12-14T08:41:07;68.82;;;26.15;;
62687;SDS011;48752;51.056;17.056;2023-12-14T08:43:34;58.50;;;25.38;;
62687;SDS011;48752;51.056;17.056;2023-12-14T08:46:08;62.67;;;26.05;;
62687;SDS011;48752;51.056;17.056;2023-12-14T08:48:35;58.05;;;25.95;;
62687;SDS011;48752;51.056;17.056;2023-12-14T08:51:01;62.42;;;26.20;;
62687;SDS011;48752;51.056;17.056;2023-12-14T08:53:34;61.00;;;26.48;;
62687;SDS011;48752;51.056;17.056;2023-12-14T08:56:01;66.75;;;28.85;;
62687;SDS011;48752;51.056;17.056;2023-12-14T08:58:28;64.18;;;27.92;;
62687;SDS011;48752;51.056;17.056;2023-12-14T09:00:55;64.95;;;27.15;;
62687;SDS011;48752;51.056;17.056;2023-12-14T09:03:23;65.75;;;29.48;;
62687;SDS011;48752;51.056;17.056;2023-12-14T09:05:48;64.22;;;28.88;;
62687;SDS011;48752;51.056;17.056;2023-12-14T09:08:15;60.90;;;29.02;;
62687;SDS011;48752;51.056;17.056;2023-12-14T09:10:43;61.58;;;29.52;;
62687;SDS011;48752;51.056;17.056;2023-12-14T09:13:15;54.38;;;26.55;;
62687;SDS011;48752;51.056;17.056;2023-12-14T09:15:41;55.25;;;24.92;;
62687;SDS011;48752;51.056;17.056;2023-12-14T09:18:08;51.95;;;24.92;;
62687;SDS011;48752;51.056;17.056;2023-12-14T09:20:33;60.33;;;25.50;;
62687;SDS011;48752;51.056;17.056;2023-12-14T09:23:00;52.72;;;25.33;;
62687;SDS011;48752;51.056;17.056;2023-12-14T09:25:26;55.15;;;24.65;;
62687;SDS011;48752;51.056;17.056;2023-12-14T09:27:53;48.50;;;23.90;;
62687;SDS011;48752;51.056;17.056;2023-12-14T09:30:19;52.55;;;24.95;;
62687;SDS011;48752;51.056;17.056;2023-12-14T09:32:45;54.13;;;26.02;;
62687;SDS011;48752;51.056;17.056;2023-12-14T09:35:14;60.70;;;26.42;;
62687;SDS011;48752;51.056;17.056;2023-12-14T09:37:41;59.10;;;25.88;;
62687;SDS011;48752;51.056;17.056;2023-12-14T09:40:08;57.50;;;26.52;;
62687;SDS011;48752;51.056;17.056;2023-12-14T09:42:38;56.03;;;24.60;;
62687;SDS011;48752;51.056;17.056;2023-12-14T09:45:05;49.05;;;23.33;;
62687;SDS011;48752;51.056;17.056;2023-12-14T09:47:34;52.28;;;23.92;;
62687;SDS011;48752;51.056;17.056;2023-12-14T09:50:01;50.88;;;23.60;;
62687;SDS011;48752;51.056;17.056;2023-12-14T09:52:28;47.92;;;23.60;;
62687;SDS011;48752;51.056;17.056;2023-12-14T09:54:54;46.58;;;22.00;;
62687;SDS011;48752;51.056;17.056;2023-12-14T09:57:20;47.80;;;22.10;;
62687;SDS011;48752;51.056;17.056;2023-12-14T09:59:53;51.88;;;23.60;;
62687;SDS011;48752;51.056;17.056;2023-12-14T10:02:27;45.10;;;24.15;;
62687;SDS011;48752;51.056;17.056;2023-12-14T10:04:53;56.13;;;27.20;;
62687;SDS011;48752;51.056;17.056;2023-12-14T10:07:21;51.03;;;25.67;;
62687;SDS011;48752;51.056;17.056;2023-12-14T10:09:48;42.13;;;23.52;;
62687;SDS011;48752;51.056;17.056;2023-12-14T10:12:16;46.90;;;22.10;;
62687;SDS011;48752;51.056;17.056;2023-12-14T10:14:44;48.20;;;21.95;;
62687;SDS011;48752;51.056;17.056;2023-12-14T10:17:27;43.58;;;20.30;;
62687;SDS011;48752;51.056;17.056;2023-12-14T10:19:58;38.03;;;19.63;;
62687;SDS011;48752;51.056;17.056;2023-12-14T10:24:58;33.17;;;18.85;;
62687;SDS011;48752;51.056;17.056;2023-12-14T10:27:26;31.58;;;18.70;;
62687;SDS011;48752;51.056;17.056;2023-12-14T10:29:52;33.10;;;19.27;;
62687;SDS011;48752;51.056;17.056;2023-12-14T10:32:18;32.28;;;18.55;;
62687;SDS011;48752;51.056;17.056;2023-12-14T10:34:44;31.65;;;19.38;;
62687;SDS011;48752;51.056;17.056;2023-12-14T10:37:11;36.88;;;20.45;;
62687;SDS011;48752;51.056;17.056;2023-12-14T10:39:37;35.80;;;19.05;;
62687;SDS011;48752;51.056;17.056;2023-12-14T10:42:06;38.35;;;20.42;;
62687;SDS011;48752;51.056;17.056;2023-12-14T10:44:35;38.92;;;21.23;;
62687;SDS011;48752;51.056;17.056;2023-12-14T10:47:03;36.60;;;21.40;;
62687;SDS011;48752;51.056;17.056;2023-12-14T10:49:29;39.13;;;20.25;;
62687;SDS011;48752;51.056;17.056;2023-12-14T10:51:57;41.13;;;21.48;;
62687;SDS011;48752;51.056;17.056;2023-12-14T10:54:32;46.15;;;21.40;;
62687;SDS011;48752;51.056;17.056;2023-12-14T10:56:59;38.55;;;20.30;;
62687;SDS011;48752;51.056;17.056;2023-12-14T10:59:26;39.53;;;19.60;;
62687;SDS011;48752;51.056;17.056;2023-12-14T11:01:52;44.92;;;21.02;;
62687;SDS011;48752;51.056;17.056;2023-12-14T11:04:27;33.47;;;18.08;;
62687;SDS011;48752;51.056;17.056;2023-12-14T11:06:53;37.22;;;20.05;;
62687;SDS011;48752;51.056;17.056;2023-12-14T11:09:19;39.33;;;19.77;;
62687;SDS011;48752;51.056;17.056;2023-12-14T11:14:19;36.58;;;18.40;;
62687;SDS011;48752;51.056;17.056;2023-12-14T11:16:47;43.20;;;19.52;;
62687;SDS011;48752;51.056;17.056;2023-12-14T11:24:32;38.53;;;19.52;;
62687;SDS011;48752;51.056;17.056;2023-12-14T11:26:59;36.50;;;19.52;;
62687;SDS011;48752;51.056;17.056;2023-12-14T11:29:24;39.28;;;19.83;;
62687;SDS011;48752;51.056;17.056;2023-12-14T11:31:51;37.17;;;17.73;;
62687;SDS011;48752;51.056;17.056;2023-12-14T11:34:24;35.13;;;17.65;;
62687;SDS011;48752;51.056;17.056;2023-12-14T11:36:51;33.00;;;18.10;;
62687;SDS011;48752;51.056;17.056;2023-12-14T11:39:25;35.95;;;18.08;;
62687;SDS011;48752;51.056;17.056;2023-12-14T11:42:00;40.53;;;19.15;;
62687;SDS011;48752;51.056;17.056;2023-12-14T11:44:43;38.28;;;20.38;;
62687;SDS011;48752;51.056;17.056;2023-12-14T11:47:08;37.25;;;19.45;;
62687;SDS011;48752;51.056;17.056;2023-12-14T11:49:35;35.53;;;19.48;;
62687;SDS011;48752;51.056;17.056;2023-12-14T11:52:08;38.60;;;20.33;;
62687;SDS011;48752;51.056;17.056;2023-12-14T11:54:35;35.55;;;19.00;;
62687;SDS011;48752;51.056;17.056;2023-12-14T11:57:02;40.95;;;19.38;;
62687;SDS011;48752;51.056;17.056;2023-12-14T11:59:31;40.58;;;19.17;;
62687;SDS011;48752;51.056;17.056;2023-12-14T12:02:04;36.63;;;20.17;;
62687;SDS011;48752;51.056;17.056;2023-12-14T12:04:30;38.33;;;19.50;;
62687;SDS011;48752;51.056;17.056;2023-12-14T12:07:04;31.20;;;17.35;;
62687;SDS011;48752;51.056;17.056;2023-12-14T12:09:42;31.00;;;17.92;;
62687;SDS011;48752;51.056;17.056;2023-12-14T12:12:09;32.83;;;18.17;;
62687;SDS011;48752;51.056;17.056;2023-12-14T12:14:36;35.33;;;18.85;;
62687;SDS011;48752;51.056;17.056;2023-12-14T12:17:03;36.35;;;19.30;;
62687;SDS011;48752;51.056;17.056;2023-12-14T12:19:35;39.13;;;21.25;;
62687;SDS011;48752;51.056;17.056;2023-12-14T12:22:02;35.00;;;19.65;;
62687;SDS011;48752;51.056;17.056;2023-12-14T12:24:28;38.17;;;20.90;;
62687;SDS011;48752;51.056;17.056;2023-12-14T12:26:56;30.55;;;17.85;;
62687;SDS011;48752;51.056;17.056;2023-12-14T12:29:22;36.00;;;19.20;;
62687;SDS011;48752;51.056;17.056;2023-12-14T12:31:49;34.25;;;18.10;;
62687;SDS011;48752;51.056;17.056;2023-12-14T12:34:15;34.30;;;18.35;;
62687;SDS011;48752;51.056;17.056;2023-12-14T12:36:41;36.03;;;19.33;;
62687;SDS011;48752;51.056;17.056;2023-12-14T12:39:08;39.53;;;20.17;;
62687;SDS011;48752;51.056;17.056;2023-12-14T12:41:42;40.50;;;22.45;;
62687;SDS011;48752;51.056;17.056;2023-12-14T12:44:09;39.75;;;20.40;;
62687;SDS011;48752;51.056;17.056;2023-12-14T12:46:35;36.13;;;19.20;;
62687;SDS011;48752;51.056;17.056;2023-12-14T12:49:02;37.85;;;19.83;;
62687;SDS011;48752;51.056;17.056;2023-12-14T12:51:30;35.92;;;18.08;;
62687;SDS011;48752;51.056;17.056;2023-12-14T12:53:57;33.72;;;19.27;;
62687;SDS011;48752;51.056;17.056;2023-12-14T12:56:23;33.67;;;18.73;;
62687;SDS011;48752;51.056;17.056;2023-12-14T12:58:50;34.78;;;17.80;;
62687;SDS011;48752;51.056;17.056;2023-12-14T13:01:20;30.45;;;17.63;;
62687;SDS011;48752;51.056;17.056;2023-12-14T13:03:54;33.70;;;18.10;;
62687;SDS011;48752;51.056;17.056;2023-12-14T13:06:23;33.10;;;17.48;;
62687;SDS011;48752;51.056;17.056;2023-12-14T13:08:52;29.17;;;15.98;;
62687;SDS011;48752;51.056;17.056;2023-12-14T13:11:18;24.48;;;14.05;;
62687;SDS011;48752;51.056;17.056;2023-12-14T13:13:44;21.45;;;12.43;;
62687;SDS011;48752;51.056;17.056;2023-12-14T13:16:10;21.95;;;11.60;;
62687;SDS011;48752;51.056;17.056;2023-12-14T13:18:39;18.60;;;12.38;;
62687;SDS011;48752;51.056;17.056;2023-12-14T13:21:05;15.82;;;9.98;;
62687;SDS011;48752;51.056;17.056;2023-12-14T13:23:32;16.30;;;10.65;;
62687;SDS011;48752;51.056;17.056;2023-12-14T13:25:59;18.80;;;10.60;;
62687;SDS011;48752;51.056;17.056;2023-12-14T13:28:24;15.43;;;10.38;;
62687;SDS011;48752;51.056;17.056;2023-12-14T13:30:49;18.63;;;11.15;;
62687;SDS011;48752;51.056;17.056;2023-12-14T13:33:15;18.67;;;11.07;;
62687;SDS011;48752;51.056;17.056;2023-12-14T13:35:41;21.95;;;11.48;;
62687;SDS011;48752;51.056;17.056;2023-12-14T13:38:07;22.50;;;12.25;;
62687;SDS011;48752;51.056;17.056;2023-12-14T13:40:34;21.25;;;12.18;;
62687;SDS011;48752;51.056;17.056;2023-12-14T13:43:01;19.20;;;10.60;;
62687;SDS011;48752;51.056;17.056;2023-12-14T13:45:42;18.45;;;11.32;;
62687;SDS011;48752;51.056;17.056;2023-12-14T13:48:08;18.55;;;11.20;;
62687;SDS011;48752;51.056;17.056;2023-12-14T13:50:44;22.35;;;12.45;;
62687;SDS011;48752;51.056;17.056;2023-12-14T13:53:19;23.13;;;11.95;;
62687;SDS011;48752;51.056;17.056;2023-12-14T13:55:45;22.17;;;13.20;;
62687;SDS011;48752;51.056;17.056;2023-12-14T13:58:11;21.90;;;13.13;;
62687;SDS011;48752;51.056;17.056;2023-12-14T14:00:44;21.65;;;12.50;;
62687;SDS011;48752;51.056;17.056;2023-12-14T14:03:09;23.92;;;13.50;;
62687;SDS011;48752;51.056;17.056;2023-12-14T14:05:35;19.85;;;11.85;;
62687;SDS011;48752;51.056;17.056;2023-12-14T14:08:02;22.50;;;13.23;;
62687;SDS011;48752;51.056;17.056;2023-12-14T14:10:29;27.70;;;13.05;;
62687;SDS011;48752;51.056;17.056;2023-12-14T14:12:55;25.50;;;13.55;;
62687;SDS011;48752;51.056;17.056;2023-12-14T14:15:23;20.90;;;11.90;;
62687;SDS011;48752;51.056;17.056;2023-12-14T14:17:48;23.42;;;13.07;;
62687;SDS011;48752;51.056;17.056;2023-12-14T14:20:18;24.70;;;13.93;;
62687;SDS011;48752;51.056;17.056;2023-12-14T14:22:44;20.98;;;12.65;;